Terminal Aerodrome Forecast
Issued by NWS Louisville, KY

Home | Current Version | Previous Version | Text Only | Print | Product List | Glossary On
Versions: 1 2 3 4 5 6 7 8 9 10 11 12 13 14 15 16 17 18
000
FTUS43 KLMK 191127
TAFBWG
TAF
KBWG 191127Z 1912/2012 20005KT P6SM VCTS SCT010 OVC050CB
     FM191300 21005KT P6SM VCSH BKN040 BKN100
     FM191900 22008KT P6SM BKN150
     FM200300 00000KT 5SM BR SCT250=

USA.gov is the U.S. government's official web portal to all federal, state and local government web resources and services.